Terminal Aerodrome Forecast
Issued by NWS

Home | Current Version | Previous Version | Text Only | Print | Product List | Glossary On
Versions: 1 2 3 4 5 6 7 8 9 10 11 12 13 14 15 16 17 18 19
000
FTUS43 KAPX 182327
TAFMBL
TAF
KMBL 182327Z 1900/1924 08008G16KT P6SM FEW250
     FM190500 12009KT P6SM SCT250 WS015/14035KT
     FM191300 11010G17KT P6SM BKN070
     FM191900 11010G18KT P6SM SCT070 BKN250
     FM192200 11010KT P6SM VCSH OVC060
      AMD LTD TO CLD VIS AND WIND=

USA.gov is the U.S. government's official web portal to all federal, state and local government web resources and services.